Time;durP1;ratioP1;P1;durP2;ratioP2;P2;SDS_P1;SDS_P2;PMS_P1;PMS_P2;Temp;Humidity;BMP_temperature;BMP_pressure;BME280_temperature;BME280_humidity;BME280_pressure;Samples;Min_cycle;Max_cycle;Signal;HPM_P1;HPM_P2
2022/06/13 00:00:10;;;;;;;10.00;5.37;;;19.80;99.90;;;;;;5020499;28;20441;-48
2022/06/13 00:02:38;;;;;;;4.70;4.30;;;19.80;99.90;;;;;;5020369;28;20528;-52
2022/06/13 00:05:07;;;;;;;5.90;4.50;;;19.70;99.90;;;;;;5020269;28;20460;-48
2022/06/13 00:07:34;;;;;;;4.80;4.40;;;19.70;99.90;;;;;;5020127;28;20462;-52
2022/06/13 00:10:02;;;;;;;4.83;4.43;;;19.70;99.90;;;;;;5020032;28;20649;-49
2022/06/13 00:12:29;;;;;;;5.20;4.77;;;19.80;99.90;;;;;;5020280;28;20524;-50
2022/06/13 00:14:57;;;;;;;5.20;4.00;;;19.70;99.90;;;;;;5019768;28;20826;-49
2022/06/13 00:17:24;;;;;;;11.53;4.30;;;19.60;99.90;;;;;;5019905;28;20413;-51
2022/06/13 00:19:52;;;;;;;5.27;4.47;;;19.50;99.90;;;;;;5019770;28;20413;-49
2022/06/13 00:22:19;;;;;;;6.50;5.27;;;19.30;99.90;;;;;;5019311;28;20475;-48
2022/06/13 00:24:47;;;;;;;5.43;4.40;;;19.20;99.90;;;;;;5011932;28;20497;-52
2022/06/13 00:27:15;;;;;;;7.57;5.63;;;19.10;99.90;;;;;;5020682;28;20434;-50
2022/06/13 00:29:44;;;;;;;6.30;5.67;;;19.00;99.90;;;;;;5020460;28;20443;-48
2022/06/13 00:32:11;;;;;;;5.40;4.90;;;19.00;99.90;;;;;;5021488;28;20410;-48
2022/06/13 00:34:38;;;;;;;4.27;3.93;;;18.70;99.90;;;;;;5019071;28;20776;-50
2022/06/13 00:37:06;;;;;;;5.90;5.30;;;18.40;99.90;;;;;;5019136;28;20441;-53
2022/06/13 00:39:33;;;;;;;9.37;4.63;;;18.10;99.90;;;;;;5019968;28;20769;-50
2022/06/13 00:42:00;;;;;;;5.93;5.40;;;17.90;99.90;;;;;;5018672;28;20478;-49
2022/06/13 00:44:33;;;;;;;6.10;5.50;;;17.70;99.90;;;;;;5019111;28;20439;-48
2022/06/13 00:47:01;;;;;;;5.33;4.83;;;17.60;99.90;;;;;;5012654;28;20448;-50
2022/06/13 00:49:41;;;;;;;5.60;5.03;;;17.50;99.90;;;;;;5019060;28;20413;-49
2022/06/13 00:52:18;;;;;;;5.13;4.73;;;17.50;99.90;;;;;;5013951;28;20412;-52
2022/06/13 00:54:47;;;;;;;4.70;4.40;;;17.50;99.90;;;;;;5019047;28;20453;-50
2022/06/13 00:57:19;;;;;;;4.33;3.93;;;17.60;99.90;;;;;;5018801;28;20735;-47
2022/06/13 00:59:49;;;;;;;4.97;4.57;;;17.70;99.90;;;;;;5009412;28;20438;-48
2022/06/13 01:02:17;;;;;;;6.80;6.20;;;17.50;99.90;;;;;;5018544;28;20467;-47
2022/06/13 01:04:47;;;;;;;6.20;5.63;;;17.60;99.90;;;;;;5018013;28;20465;-48
2022/06/13 01:07:15;;;;;;;5.63;5.20;;;17.70;99.90;;;;;;5018327;28;20506;-48
2022/06/13 01:12:30;;;;;;;6.77;6.10;;;17.60;99.90;;;;;;5018820;28;22068;-50
2022/06/13 01:14:57;;;;;;;6.00;5.40;;;17.90;99.90;;;;;;5018496;28;20458;-49
2022/06/13 01:17:50;;;;;;;6.50;5.90;;;18.10;99.90;;;;;;5018394;28;20588;-49
2022/06/13 01:20:21;;;;;;;5.03;4.63;;;18.30;99.90;;;;;;5018201;28;20417;-48
2022/06/13 01:23:06;;;;;;;8.30;6.23;;;18.40;99.90;;;;;;5016651;28;20612;-49
2022/06/13 01:26:11;;;;;;;9.10;5.67;;;18.40;99.90;;;;;;5018273;28;20428;-49
2022/06/13 01:29:15;;;;;;;6.90;5.90;;;18.10;99.90;;;;;;5018078;28;20423;-50
2022/06/13 01:32:16;;;;;;;6.43;5.83;;;18.20;99.90;;;;;;4990468;28;20412;-54
2022/06/13 01:35:09;;;;;;;5.53;5.03;;;18.20;99.90;;;;;;5018730;28;20439;-50
2022/06/13 01:38:13;;;;;;;6.77;6.17;;;18.20;99.90;;;;;;5018643;28;20505;-50
2022/06/13 01:40:43;;;;;;;5.10;4.77;;;18.30;99.90;;;;;;5018204;28;20506;-49
2022/06/13 01:43:28;;;;;;;6.13;5.60;;;18.30;99.90;;;;;;5018938;28;20852;-51
2022/06/13 01:46:05;;;;;;;10.27;5.93;;;18.30;99.90;;;;;;5012052;28;20458;-49
2022/06/13 01:48:39;;;;;;;7.63;6.90;;;18.40;99.90;;;;;;5018365;28;20473;-51
2022/06/13 01:51:35;;;;;;;12.20;7.50;;;18.40;99.90;;;;;;5018815;28;20415;-49
2022/06/13 01:54:30;;;;;;;6.83;6.23;;;18.40;99.90;;;;;;5012500;28;20464;-49
2022/06/13 01:57:14;;;;;;;6.20;5.70;;;18.40;99.90;;;;;;5017527;28;20792;-50
2022/06/13 01:59:56;;;;;;;7.87;7.17;;;18.50;99.90;;;;;;5018829;28;20651;-50
2022/06/13 02:02:42;;;;;;;6.77;6.27;;;18.30;99.90;;;;;;5018876;28;20953;-52
2022/06/13 02:05:15;;;;;;;6.47;5.87;;;18.50;99.90;;;;;;5018066;28;20803;-48
2022/06/13 02:07:47;;;;;;;6.93;6.37;;;18.50;99.90;;;;;;5018136;28;20437;-50
2022/06/13 02:10:41;;;;;;;6.37;5.87;;;18.50;99.90;;;;;;5018027;28;20408;-49
2022/06/13 02:13:14;;;;;;;6.13;5.53;;;18.50;99.90;;;;;;5018174;28;20438;-48
2022/06/13 02:15:47;;;;;;;7.00;6.43;;;18.60;99.90;;;;;;5017725;28;20491;-48
2022/06/13 02:18:26;;;;;;;6.73;6.13;;;18.60;99.90;;;;;;5018267;28;20411;-50
2022/06/13 02:20:59;;;;;;;9.23;8.43;;;18.60;99.90;;;;;;5014640;28;20520;-49
2022/06/13 02:23:32;;;;;;;6.67;5.97;;;18.40;99.90;;;;;;5018273;28;20490;-51
2022/06/13 02:26:05;;;;;;;7.57;6.97;;;18.50;99.90;;;;;;5016501;28;20480;-48
2022/06/13 02:28:57;;;;;;;8.50;6.90;;;18.40;99.90;;;;;;5018554;28;20616;-49
2022/06/13 02:31:32;;;;;;;8.90;8.20;;;18.30;99.90;;;;;;5020157;28;20689;-48
2022/06/13 02:34:01;;;;;;;6.80;6.20;;;18.30;99.90;;;;;;5021943;28;20532;-50
2022/06/13 02:36:35;;;;;;;8.17;7.47;;;18.30;99.90;;;;;;5021790;28;20449;-50
2022/06/13 02:39:26;;;;;;;8.90;8.03;;;18.10;99.90;;;;;;5022365;28;20441;-52
2022/06/13 02:42:20;;;;;;;15.13;8.40;;;18.00;99.90;;;;;;5015346;28;20684;-51
2022/06/13 02:45:21;;;;;;;8.17;7.47;;;17.90;99.90;;;;;;5018256;28;20450;-49
2022/06/13 02:48:04;;;;;;;9.03;8.13;;;18.00;99.90;;;;;;5006770;28;20428;-49
2022/06/13 02:50:57;;;;;;;10.17;9.17;;;18.00;99.90;;;;;;5021617;28;20412;-47
2022/06/13 02:53:41;;;;;;;11.00;9.90;;;18.10;99.90;;;;;;5021565;28;20443;-48
2022/06/13 02:56:24;;;;;;;10.03;8.50;;;18.00;99.90;;;;;;5019743;28;20416;-53
2022/06/13 02:59:11;;;;;;;11.50;10.40;;;18.00;99.90;;;;;;5014352;28;20413;-53
2022/06/13 03:01:42;;;;;;;10.50;9.47;;;17.90;99.90;;;;;;5021458;28;20434;-52
2022/06/13 03:04:31;;;;;;;11.10;10.03;;;17.70;99.90;;;;;;5020975;28;20480;-49
2022/06/13 03:07:23;;;;;;;11.73;10.63;;;17.80;99.90;;;;;;5018858;28;20437;-51
2022/06/13 03:10:08;;;;;;;10.47;9.33;;;17.80;99.90;;;;;;5014671;28;20458;-50
2022/06/13 03:13:01;;;;;;;10.33;9.20;;;17.90;99.90;;;;;;5018302;28;20451;-51
2022/06/13 03:15:54;;;;;;;8.70;7.90;;;18.00;99.90;;;;;;5018134;28;20660;-52
2022/06/13 03:18:28;;;;;;;10.73;9.80;;;18.00;99.90;;;;;;5014637;28;20729;-50
2022/06/13 03:21:11;;;;;;;8.77;8.07;;;18.10;99.90;;;;;;5013884;28;20439;-50
2022/06/13 03:23:47;;;;;;;8.87;7.67;;;18.20;99.90;;;;;;5020088;28;20654;-51
2022/06/13 03:26:28;;;;;;;10.93;8.50;;;18.20;99.90;;;;;;5020589;28;20678;-50
2022/06/13 03:29:04;;;;;;;11.87;8.60;;;18.50;99.90;;;;;;5017031;28;20413;-49
2022/06/13 03:31:42;;;;;;;12.20;8.20;;;18.60;99.90;;;;;;5020949;28;20420;-49
2022/06/13 03:34:20;;;;;;;7.53;6.83;;;18.70;99.90;;;;;;5020507;28;20453;-49
2022/06/13 03:36:54;;;;;;;7.80;7.10;;;18.80;99.90;;;;;;5012663;28;20715;-48
2022/06/13 03:39:27;;;;;;;7.60;6.53;;;18.80;99.90;;;;;;5020024;28;20438;-49
2022/06/13 03:42:12;;;;;;;10.03;7.40;;;19.10;99.90;;;;;;5020086;28;20408;-48
2022/06/13 03:44:57;;;;;;;7.00;6.40;;;19.30;99.90;;;;;;5020278;28;20758;-47
2022/06/13 03:47:44;;;;;;;7.70;7.17;;;19.50;99.90;;;;;;5019821;28;20409;-48
2022/06/13 03:50:32;;;;;;;7.40;6.73;;;19.60;99.90;;;;;;5019675;28;20445;-50
2022/06/13 03:53:15;;;;;;;6.17;5.70;;;19.70;99.90;;;;;;5018117;28;20413;-49
2022/06/13 03:56:01;;;;;;;9.03;6.30;;;19.60;99.90;;;;;;5019867;28;20517;-47
2022/06/13 03:58:35;;;;;;;5.77;5.37;;;19.60;99.90;;;;;;5017869;28;20496;-51
2022/06/13 04:01:28;;;;;;;6.67;6.17;;;19.60;99.90;;;;;;5019177;28;20750;-50
2022/06/13 04:06:35;;;;;;;9.43;6.67;;;19.20;99.90;;;;;;4973366;28;20514;-53
2022/06/13 04:09:23;;;;;;;9.47;7.03;;;18.50;99.90;;;;;;4975834;28;20430;-56
2022/06/13 04:12:11;;;;;;;9.93;8.90;;;18.00;99.90;;;;;;4980392;28;20440;-56
2022/06/13 04:15:02;;;;;;;8.23;7.40;;;17.60;99.90;;;;;;4984622;28;20512;-55
2022/06/13 04:17:32;;;;;;;8.43;7.70;;;17.40;99.90;;;;;;4996766;28;20429;-55
2022/06/13 04:20:16;;;;;;;8.13;7.33;;;17.40;99.90;;;;;;4988579;28;20506;-52
2022/06/13 04:23:12;;;;;;;7.53;6.83;;;17.30;99.90;;;;;;4989353;28;20474;-56
2022/06/13 04:25:45;;;;;;;8.77;7.87;;;17.20;99.90;;;;;;4992169;28;20476;-56
2022/06/13 04:28:22;;;;;;;7.43;6.80;;;17.30;99.90;;;;;;5006996;28;20425;-52
2022/06/13 04:30:53;;;;;;;7.53;6.93;;;17.50;99.90;;;;;;4995156;28;20421;-54
2022/06/13 04:33:38;;;;;;;11.13;9.37;;;17.50;99.90;;;;;;4989242;28;20434;-54
2022/06/13 04:36:10;;;;;;;7.60;6.90;;;17.50;99.90;;;;;;4998228;28;20430;-53
2022/06/13 04:38:42;;;;;;;6.90;6.33;;;17.50;99.90;;;;;;4994096;28;20717;-55
2022/06/13 04:41:12;;;;;;;7.37;6.73;;;17.50;99.90;;;;;;4987452;28;20732;-50
2022/06/13 04:43:44;;;;;;;7.40;6.77;;;17.50;99.90;;;;;;4991568;28;20466;-50
2022/06/13 04:46:14;;;;;;;8.03;7.23;;;17.50;99.90;;;;;;4987611;28;20858;-53
2022/06/13 04:48:45;;;;;;;7.87;7.17;;;17.50;99.90;;;;;;4998976;28;20478;-51
2022/06/13 04:51:18;;;;;;;7.63;6.93;;;17.60;99.90;;;;;;5006669;28;20416;-55
2022/06/13 04:53:55;;;;;;;8.23;7.30;;;17.70;99.90;;;;;;4991328;28;20401;-56
2022/06/13 04:56:23;;;;;;;8.70;8.00;;;17.90;99.90;;;;;;4992252;28;20438;-50
2022/06/13 04:58:53;;;;;;;8.00;7.40;;;18.20;99.90;;;;;;4988813;28;20410;-53
2022/06/13 05:01:41;;;;;;;9.10;8.30;;;18.50;99.90;;;;;;4990438;28;20451;-50
2022/06/13 05:04:13;;;;;;;8.83;8.03;;;18.70;99.90;;;;;;4988965;28;20486;-54
2022/06/13 05:06:52;;;;;;;7.87;7.27;;;19.00;99.90;;;;;;4993925;28;20860;-52
2022/06/13 05:09:25;;;;;;;8.90;8.10;;;19.10;99.90;;;;;;4989074;28;20442;-51
2022/06/13 05:12:04;;;;;;;10.70;7.50;;;19.40;99.90;;;;;;4999612;28;20641;-55
2022/06/13 05:14:42;;;;;;;10.57;7.77;;;19.60;99.90;;;;;;4991264;28;20500;-54
2022/06/13 05:17:20;;;;;;;7.33;6.70;;;19.90;99.90;;;;;;4992737;28;20427;-53
2022/06/13 05:20:11;;;;;;;6.90;6.30;;;20.00;99.90;;;;;;4996707;28;20401;-53
2022/06/13 05:22:59;;;;;;;6.70;6.10;;;20.00;99.90;;;;;;4988278;28;20453;-52
2022/06/13 05:25:46;;;;;;;5.57;5.17;;;19.70;99.90;;;;;;4991786;28;20432;-50
2022/06/13 05:28:20;;;;;;;6.63;6.13;;;19.60;99.90;;;;;;4995561;28;20442;-50
2022/06/13 05:30:52;;;;;;;5.57;5.17;;;19.40;99.90;;;;;;4996098;28;20471;-48
2022/06/13 05:33:23;;;;;;;4.20;3.90;;;19.30;99.90;;;;;;4986473;28;20413;-52
2022/06/13 05:35:53;;;;;;;5.03;4.57;;;19.30;99.90;;;;;;4990881;28;20427;-51
2022/06/13 05:38:35;;;;;;;4.33;4.00;;;19.50;99.90;;;;;;4993697;28;20413;-50
2022/06/13 05:41:03;;;;;;;4.07;3.77;;;19.60;99.90;;;;;;4986660;28;20707;-50
2022/06/13 05:43:30;;;;;;;5.53;5.03;;;19.60;99.90;;;;;;4991996;28;20450;-51
2022/06/13 05:45:58;;;;;;;3.80;3.60;;;19.50;99.90;;;;;;4989956;28;20451;-50
2022/06/13 05:48:26;;;;;;;4.60;4.20;;;19.60;99.90;;;;;;4992934;28;20483;-54
2022/06/13 05:50:54;;;;;;;3.80;3.50;;;19.70;99.90;;;;;;4995454;28;20431;-51
2022/06/13 05:53:24;;;;;;;4.73;3.67;;;19.80;99.90;;;;;;4992754;28;20420;-50
2022/06/13 05:55:57;;;;;;;3.20;3.00;;;19.50;99.90;;;;;;4992979;28;20437;-52
2022/06/13 05:58:25;;;;;;;4.27;3.67;;;19.70;99.90;;;;;;4990212;28;20475;-50
2022/06/13 06:00:57;;;;;;;4.40;4.00;;;19.80;99.90;;;;;;4987817;28;20509;-47
2022/06/13 06:03:25;;;;;;;4.07;3.67;;;19.60;99.90;;;;;;4992488;28;20542;-51
2022/06/13 06:05:53;;;;;;;3.10;2.90;;;19.70;99.90;;;;;;5000892;28;20953;-52
2022/06/13 06:08:23;;;;;;;3.70;3.50;;;19.80;99.90;;;;;;5000429;28;20440;-52
2022/06/13 06:10:53;;;;;;;7.63;3.20;;;20.00;99.90;;;;;;4994601;28;20642;-50
2022/06/13 06:13:21;;;;;;;3.73;3.43;;;20.20;99.90;;;;;;5002962;28;20490;-48
2022/06/13 06:15:50;;;;;;;3.53;3.23;;;20.20;99.90;;;;;;5006911;28;20470;-52
2022/06/13 06:18:18;;;;;;;4.10;3.53;;;20.20;99.90;;;;;;5000319;28;20439;-50
2022/06/13 06:20:46;;;;;;;3.73;3.27;;;20.10;99.90;;;;;;4989757;28;20484;-54
2022/06/13 06:23:14;;;;;;;3.50;3.20;;;20.20;99.90;;;;;;4997722;28;20492;-48
2022/06/13 06:25:42;;;;;;;2.83;2.67;;;20.10;99.90;;;;;;5002651;28;20460;-48
2022/06/13 06:28:15;;;;;;;3.00;2.80;;;20.30;99.90;;;;;;4998543;28;20436;-54
2022/06/13 06:30:43;;;;;;;6.73;4.00;;;20.30;99.90;;;;;;4991248;28;20695;-51
2022/06/13 06:33:11;;;;;;;4.77;3.87;;;20.30;99.90;;;;;;4990819;28;20576;-52
2022/06/13 06:35:41;;;;;;;3.03;2.83;;;20.30;99.90;;;;;;4993799;28;20467;-53
2022/06/13 06:38:09;;;;;;;5.70;3.20;;;20.60;99.90;;;;;;5001736;28;20478;-52
2022/06/13 06:40:38;;;;;;;4.10;3.80;;;20.60;99.90;;;;;;4997161;28;20437;-47
2022/06/13 06:43:05;;;;;;;4.93;4.00;;;20.80;99.90;;;;;;4990632;28;20721;-51
2022/06/13 06:45:33;;;;;;;6.53;4.33;;;20.90;99.90;;;;;;4991136;28;20465;-49
2022/06/13 06:48:01;;;;;;;4.80;4.40;;;21.10;99.90;;;;;;4989120;28;20507;-51
2022/06/13 06:50:31;;;;;;;3.97;3.57;;;20.90;99.90;;;;;;4997883;28;20806;-51
2022/06/13 06:53:00;;;;;;;10.03;4.77;;;20.70;99.90;;;;;;4995238;28;20448;-54
2022/06/13 07:01:22;;;;;;;9.17;6.23;;;21.00;99.90;;;;;;4966954;28;20661;-50
2022/06/13 07:03:50;;;;;;;4.63;4.30;;;21.20;99.90;;;;;;4995727;28;20468;-51
2022/06/13 07:06:17;;;;;;;6.10;4.10;;;21.30;99.90;;;;;;4998819;28;20621;-53
2022/06/13 07:08:45;;;;;;;5.60;4.03;;;21.70;99.90;;;;;;4990990;28;20494;-50
2022/06/13 07:14:08;;;;;;;3.80;3.50;;;22.10;99.90;;;;;;5000418;28;20412;-50
2022/06/13 07:16:35;;;;;;;3.80;3.50;;;22.10;99.90;;;;;;4998757;28;20492;-53
2022/06/13 07:19:03;;;;;;;5.17;3.77;;;22.30;99.90;;;;;;4999276;28;20426;-48
2022/06/13 07:21:30;;;;;;;5.27;3.63;;;22.40;99.90;;;;;;4989915;28;20449;-53
2022/06/13 07:23:58;;;;;;;4.23;3.87;;;22.40;99.90;;;;;;4994309;28;20456;-55
2022/06/13 07:26:25;;;;;;;3.20;2.90;;;22.50;99.90;;;;;;4995685;28;20700;-54
2022/06/13 07:28:55;;;;;;;3.03;2.40;;;22.50;99.90;;;;;;4996628;28;20413;-54
2022/06/13 07:31:31;;;;;;;4.47;2.83;;;22.30;99.90;;;;;;4992288;28;20473;-52
2022/06/13 07:33:58;;;;;;;7.40;3.30;;;22.30;99.90;;;;;;4992429;28;20445;-50
2022/06/13 07:36:26;;;;;;;2.80;2.47;;;22.40;99.90;;;;;;5000959;28;20637;-51
2022/06/13 07:38:53;;;;;;;4.33;3.93;;;22.40;99.90;;;;;;4996101;28;20435;-50
2022/06/13 07:41:23;;;;;;;2.93;2.73;;;22.30;99.90;;;;;;4992184;28;20729;-53
2022/06/13 07:43:52;;;;;;;7.97;4.90;;;22.20;99.90;;;;;;4992787;28;20541;-52
2022/06/13 07:46:24;;;;;;;6.10;5.47;;;22.10;99.90;;;;;;4992376;28;20410;-47
2022/06/13 07:48:52;;;;;;;6.97;6.37;;;22.10;99.90;;;;;;4992583;28;20407;-47
2022/06/13 07:51:21;;;;;;;8.33;6.40;;;22.00;99.90;;;;;;4998663;28;20614;-51
2022/06/13 07:53:49;;;;;;;9.47;7.87;;;21.80;99.90;;;;;;4993059;28;20409;-50
2022/06/13 07:56:28;;;;;;;8.80;8.10;;;21.80;99.90;;;;;;4989468;28;20420;-51
2022/06/13 07:58:57;;;;;;;9.07;8.27;;;21.80;99.90;;;;;;4990284;28;20418;-55
2022/06/13 08:01:25;;;;;;;9.83;8.83;;;21.90;99.90;;;;;;4991129;28;20417;-47
2022/06/13 08:03:53;;;;;;;9.40;8.60;;;21.80;99.90;;;;;;4995124;28;20500;-50
2022/06/13 08:06:20;;;;;;;14.13;9.77;;;21.70;99.90;;;;;;4997443;28;20417;-49
2022/06/13 08:08:47;;;;;;;11.40;8.70;;;21.90;99.90;;;;;;4987661;28;20473;-47
2022/06/13 08:11:20;;;;;;;9.97;9.07;;;22.10;99.90;;;;;;4996973;28;20557;-51
2022/06/13 08:13:47;;;;;;;8.80;8.10;;;22.00;99.90;;;;;;4998362;28;20451;-52
2022/06/13 08:16:14;;;;;;;9.03;8.23;;;21.90;99.90;;;;;;4996936;28;20515;-54
2022/06/13 08:18:42;;;;;;;12.37;8.60;;;22.00;99.90;;;;;;4995989;28;20456;-48
2022/06/13 08:21:11;;;;;;;9.33;7.23;;;21.90;99.90;;;;;;4991201;28;20426;-49
2022/06/13 08:23:40;;;;;;;8.50;7.70;;;21.90;99.90;;;;;;4990533;28;20493;-50
2022/06/13 08:26:09;;;;;;;11.10;10.13;;;21.90;99.90;;;;;;4994441;28;20635;-48
2022/06/13 08:28:36;;;;;;;9.63;8.80;;;21.90;99.90;;;;;;4993540;28;20484;-50
2022/06/13 08:31:11;;;;;;;8.33;7.60;;;22.00;99.90;;;;;;4993237;28;20418;-48
2022/06/13 08:33:38;;;;;;;10.20;9.30;;;22.20;99.90;;;;;;4990272;28;20449;-49
2022/06/13 08:36:07;;;;;;;9.50;8.70;;;22.00;99.90;;;;;;4992393;28;20438;-52
2022/06/13 08:38:34;;;;;;;9.33;8.53;;;21.50;99.90;;;;;;4993677;28;20452;-47
2022/06/13 08:41:04;;;;;;;8.40;7.80;;;21.20;99.90;;;;;;4993465;28;20614;-50
2022/06/13 08:43:43;;;;;;;11.67;10.63;;;20.90;99.90;;;;;;4990244;28;20564;-49
2022/06/13 08:46:32;;;;;;;10.10;9.20;;;20.50;99.90;;;;;;4987449;28;20431;-50
2022/06/13 08:49:12;;;;;;;10.93;9.83;;;20.30;99.90;;;;;;4995636;28;20453;-51
2022/06/13 08:52:01;;;;;;;9.03;8.23;;;20.20;99.90;;;;;;4996090;28;20489;-54
2022/06/13 08:54:32;;;;;;;12.33;8.73;;;20.30;99.90;;;;;;4991403;28;20663;-49
2022/06/13 08:57:05;;;;;;;8.90;7.33;;;20.20;99.90;;;;;;4989267;28;20698;-49
2022/06/13 08:59:39;;;;;;;10.90;9.30;;;19.90;99.90;;;;;;4990325;28;20426;-52
2022/06/13 09:02:25;;;;;;;10.87;9.87;;;19.70;99.90;;;;;;4992224;28;20476;-47
2022/06/13 09:04:59;;;;;;;11.20;8.20;;;19.50;99.90;;;;;;4995654;28;20464;-50
2022/06/13 09:07:52;;;;;;;12.00;8.53;;;19.10;99.90;;;;;;4990155;28;20413;-49
2022/06/13 09:10:30;;;;;;;8.30;7.60;;;18.90;99.90;;;;;;4991403;28;20565;-50
2022/06/13 09:13:19;;;;;;;8.23;7.53;;;18.50;99.90;;;;;;5000091;28;20440;-53
2022/06/13 09:15:54;;;;;;;8.07;7.23;;;18.30;99.90;;;;;;5001863;28;20531;-52
2022/06/13 09:18:28;;;;;;;9.87;8.20;;;18.10;99.90;;;;;;4997655;28;20750;-48
2022/06/13 09:21:08;;;;;;;6.53;5.97;;;17.80;99.90;;;;;;4988450;28;20485;-52
2022/06/13 09:23:47;;;;;;;11.73;8.90;;;17.30;99.90;;;;;;4988711;28;20694;-53
2022/06/13 09:26:28;;;;;;;17.73;8.77;;;17.00;99.90;;;;;;4992591;28;20467;-53
2022/06/13 09:29:22;;;;;;;9.20;8.40;;;16.70;99.90;;;;;;4993125;28;20484;-55
2022/06/13 09:32:12;;;;;;;11.90;10.70;;;16.60;99.90;;;;;;4989596;28;20605;-56
2022/06/13 09:34:51;;;;;;;11.80;9.70;;;16.50;99.90;;;;;;4988524;28;20520;-54
2022/06/13 09:37:29;;;;;;;8.97;8.17;;;16.40;99.90;;;;;;4995529;28;20645;-55
2022/06/13 09:39:56;;;;;;;14.53;8.40;;;16.30;99.90;;;;;;4995976;28;20806;-55
2022/06/13 09:42:51;;;;;;;12.13;9.27;;;16.20;99.90;;;;;;4995782;28;20692;-51
2022/06/13 09:45:33;;;;;;;8.33;7.60;;;16.20;99.90;;;;;;4987608;28;20485;-52
2022/06/13 09:48:16;;;;;;;14.17;7.60;;;16.20;99.90;;;;;;4989811;28;20404;-52
2022/06/13 09:50:58;;;;;;;8.40;7.70;;;16.20;99.90;;;;;;4994456;28;20441;-54
2022/06/13 09:53:34;;;;;;;9.57;8.60;;;16.20;99.90;;;;;;4996726;28;20441;-55
2022/06/13 09:56:34;;;;;;;12.77;8.43;;;16.20;99.90;;;;;;4984950;28;20455;-51
2022/06/13 09:59:39;;;;;;;10.13;9.13;;;16.10;99.90;;;;;;4991823;28;20762;-55
2022/06/13 10:02:52;;;;;;;12.23;8.90;;;16.20;99.90;;;;;;4993229;28;20448;-51
2022/06/13 10:05:33;;;;;;;9.60;8.63;;;16.20;99.90;;;;;;4995051;28;20489;-53
2022/06/13 10:08:18;;;;;;;8.80;7.90;;;16.40;99.90;;;;;;4994006;28;20430;-52
2022/06/13 10:11:17;;;;;;;7.70;7.10;;;16.50;99.90;;;;;;4993210;28;20745;-52
2022/06/13 10:14:06;;;;;;;10.13;7.83;;;16.40;99.90;;;;;;4999351;28;20416;-53
2022/06/13 10:16:39;;;;;;;8.93;8.13;;;16.50;99.90;;;;;;4999462;28;20485;-52
2022/06/13 10:19:41;;;;;;;13.67;8.90;;;16.60;99.90;;;;;;4998939;28;20457;-51
2022/06/13 10:22:26;;;;;;;8.63;7.90;;;16.70;99.90;;;;;;4980075;28;20439;-55
2022/06/13 10:25:13;;;;;;;11.53;9.60;;;16.80;99.90;;;;;;4999160;28;20489;-53
2022/06/13 10:27:52;;;;;;;15.23;11.50;;;16.90;99.90;;;;;;4998776;28;20808;-48
2022/06/13 10:30:44;;;;;;;15.93;10.10;;;17.30;99.90;;;;;;4998854;28;20509;-53
2022/06/13 10:33:26;;;;;;;11.27;10.27;;;17.60;99.90;;;;;;4999580;28;20420;-51
2022/06/13 10:36:15;;;;;;;11.63;9.33;;;17.70;99.90;;;;;;4992073;28;20504;-50
2022/06/13 10:39:04;;;;;;;11.87;9.40;;;17.90;99.90;;;;;;4999182;28;20494;-51
2022/06/13 10:41:36;;;;;;;10.37;9.57;;;18.10;99.90;;;;;;4999002;28;20730;-55
2022/06/13 10:44:08;;;;;;;9.13;8.30;;;18.60;99.90;;;;;;4999318;28;20489;-48
2022/06/13 10:46:36;;;;;;;7.17;6.57;;;19.10;99.90;;;;;;4999258;28;20417;-51
2022/06/13 10:49:13;;;;;;;8.40;7.60;;;19.90;99.90;;;;;;4999262;28;20436;-52
2022/06/13 10:51:41;;;;;;;10.77;7.63;;;21.00;99.90;;;;;;5000424;28;20438;-48
2022/06/13 10:54:38;;;;;;;7.80;6.60;;;21.80;99.90;;;;;;5002603;28;20436;-49
2022/06/13 10:57:09;;;;;;;8.07;6.73;;;22.50;99.90;;;;;;5003173;28;20770;-54
2022/06/13 10:59:39;;;;;;;6.70;6.10;;;22.80;99.90;;;;;;5003078;28;20442;-55
2022/06/13 11:02:24;;;;;;;7.73;5.97;;;22.70;99.90;;;;;;5003354;28;20622;-50
2022/06/13 11:05:18;;;;;;;7.37;6.33;;;22.30;99.90;;;;;;5000010;28;20484;-51
2022/06/13 11:08:00;;;;;;;9.13;6.63;;;21.90;99.90;;;;;;5003072;28;20416;-51
2022/06/13 11:10:40;;;;;;;7.40;6.33;;;21.90;99.90;;;;;;5000340;28;20437;-48
2022/06/13 11:13:16;;;;;;;6.10;5.60;;;22.40;99.90;;;;;;5002761;28;20413;-51
2022/06/13 11:24:51;;;;;;;6.27;5.80;;;21.90;99.90;;;;;;5002194;28;20565;-52
2022/06/13 11:27:41;;;;;;;7.43;5.40;;;21.90;99.90;;;;;;4998528;28;20732;-50
2022/06/13 11:30:29;;;;;;;6.47;5.97;;;21.70;99.90;;;;;;5001563;28;20745;-51
2022/06/13 11:33:10;;;;;;;13.20;5.70;;;21.40;99.90;;;;;;4995680;28;20459;-52
2022/06/13 11:35:43;;;;;;;7.53;6.83;;;21.10;99.90;;;;;;5001540;28;20440;-51
2022/06/13 11:38:15;;;;;;;6.63;5.83;;;20.70;99.90;;;;;;5001726;28;20429;-52
2022/06/13 11:40:48;;;;;;;9.10;8.23;;;20.60;99.90;;;;;;5000597;28;20419;-54
2022/06/13 11:43:35;;;;;;;8.67;7.00;;;20.50;99.90;;;;;;5001712;28;20703;-52
2022/06/13 11:46:06;;;;;;;6.87;6.27;;;20.50;99.90;;;;;;5001304;28;20709;-55
2022/06/13 11:48:34;;;;;;;8.93;6.10;;;20.60;99.90;;;;;;5001412;28;20438;-53
2022/06/13 11:51:05;;;;;;;11.80;7.90;;;20.30;99.90;;;;;;4999789;28;20441;-52
2022/06/13 11:53:39;;;;;;;8.33;7.10;;;20.20;99.90;;;;;;5000939;28;20432;-51
2022/06/13 11:56:11;;;;;;;9.77;7.43;;;20.10;99.90;;;;;;5000979;28;20480;-54
2022/06/13 11:58:45;;;;;;;7.90;7.17;;;20.10;99.90;;;;;;4999908;28;20420;-54
2022/06/13 12:01:18;;;;;;;8.80;7.10;;;20.10;99.90;;;;;;5001248;28;20439;-51
2022/06/13 12:03:59;;;;;;;11.57;6.87;;;20.40;99.90;;;;;;5001471;28;20412;-52
2022/06/13 12:06:33;;;;;;;8.67;5.80;;;20.70;99.90;;;;;;5001446;28;20715;-52
2022/06/13 12:09:12;;;;;;;6.73;6.03;;;21.10;99.90;;;;;;5001397;28;20537;-52
2022/06/13 12:11:46;;;;;;;6.57;5.97;;;21.40;99.90;;;;;;5001240;28;20418;-54
2022/06/13 12:14:14;;;;;;;6.20;5.70;;;21.30;99.90;;;;;;5000652;28;20451;-49
2022/06/13 12:17:10;;;;;;;7.63;4.43;;;21.30;99.90;;;;;;5001418;28;20847;-51
2022/06/13 12:19:49;;;;;;;8.40;5.50;;;21.60;99.90;;;;;;5001786;28;20417;-53
2022/06/13 12:22:23;;;;;;;8.60;4.30;;;21.60;99.90;;;;;;4997428;28;20845;-49
2022/06/13 12:25:14;;;;;;;5.20;4.67;;;21.80;99.90;;;;;;5001135;28;20459;-49
2022/06/13 12:28:01;;;;;;;4.27;3.80;;;21.90;99.90;;;;;;5000729;28;20484;-52
2022/06/13 12:30:49;;;;;;;4.13;3.80;;;21.90;99.90;;;;;;5000449;28;20410;-48
2022/06/13 12:33:51;;;;;;;5.70;4.23;;;21.80;99.90;;;;;;5001042;28;20408;-50
2022/06/13 12:37:07;;;;;;;4.30;3.17;;;21.90;99.90;;;;;;4997610;28;20473;-49
2022/06/13 12:39:40;;;;;;;3.67;3.13;;;22.40;99.90;;;;;;5008322;28;20416;-54
2022/06/13 12:42:27;;;;;;;4.67;3.93;;;22.20;99.90;;;;;;5003536;28;20803;-50
2022/06/13 12:45:05;;;;;;;5.03;4.50;;;22.20;99.90;;;;;;4993963;28;20547;-51
2022/06/13 12:47:39;;;;;;;4.30;3.30;;;22.10;99.90;;;;;;5000816;28;20463;-49
2022/06/13 12:50:46;;;;;;;4.03;3.70;;;22.00;99.90;;;;;;5001677;28;20758;-51
2022/06/13 12:53:34;;;;;;;3.30;3.00;;;22.10;99.90;;;;;;4996431;28;20758;-51
2022/06/13 12:56:20;;;;;;;4.13;3.73;;;22.30;99.90;;;;;;4998592;28;20451;-52
2022/06/13 12:58:54;;;;;;;4.80;3.43;;;22.00;99.90;;;;;;5000898;28;20433;-49
2022/06/13 13:01:46;;;;;;;4.70;3.97;;;21.60;99.90;;;;;;4999791;28;20456;-51
2022/06/13 13:04:32;;;;;;;6.20;4.47;;;21.20;99.90;;;;;;4981335;28;20811;-53
2022/06/13 13:07:19;;;;;;;4.53;4.13;;;20.80;99.90;;;;;;4993642;28;20444;-52
2022/06/13 13:10:12;;;;;;;5.40;4.87;;;20.30;99.90;;;;;;4996112;28;20524;-51
2022/06/13 13:13:15;;;;;;;4.63;4.27;;;20.20;99.90;;;;;;5000510;28;20447;-52
2022/06/13 13:15:46;;;;;;;5.00;4.00;;;20.50;99.90;;;;;;4999607;28;20463;-53
2022/06/13 13:18:30;;;;;;;5.43;4.77;;;20.50;99.90;;;;;;4999869;28;20413;-52
2022/06/13 13:21:07;;;;;;;5.97;5.10;;;20.80;99.90;;;;;;4993649;28;20439;-53
2022/06/13 13:24:03;;;;;;;6.47;4.97;;;21.10;99.90;;;;;;4999758;28;20537;-53
2022/06/13 13:26:55;;;;;;;4.03;3.23;;;21.40;99.90;;;;;;5000680;28;20432;-50
2022/06/13 13:29:25;;;;;;;4.33;2.60;;;22.00;99.90;;;;;;4996584;28;20424;-48
2022/06/13 13:32:21;;;;;;;5.43;3.07;;;22.60;99.90;;;;;;5000812;28;20409;-49
2022/06/13 13:35:09;;;;;;;3.60;3.30;;;22.80;99.90;;;;;;4999936;28;20467;-51
2022/06/13 13:37:53;;;;;;;5.03;2.73;;;22.80;99.90;;;;;;4998543;28;20484;-56
2022/06/13 13:40:27;;;;;;;5.73;2.80;;;22.90;99.90;;;;;;4999883;28;20752;-52
2022/06/13 13:43:16;;;;;;;2.70;2.20;;;23.10;99.90;;;;;;4999955;28;20770;-51
2022/06/13 13:45:53;;;;;;;3.97;3.00;;;22.80;99.90;;;;;;4999615;28;20516;-47
2022/06/13 13:48:38;;;;;;;2.23;2.03;;;22.70;99.90;;;;;;5000414;28;20431;-52
2022/06/13 13:51:12;;;;;;;4.23;2.40;;;22.80;99.90;;;;;;4999306;28;20440;-53
2022/06/13 13:54:03;;;;;;;2.87;2.60;;;22.70;99.90;;;;;;5000085;28;20410;-52
2022/06/13 13:56:38;;;;;;;2.53;2.30;;;22.60;99.90;;;;;;4989263;28;20422;-50
2022/06/13 13:59:09;;;;;;;3.97;1.97;;;22.20;99.90;;;;;;4999528;28;20510;-52
2022/06/13 14:01:55;;;;;;;2.70;2.50;;;21.90;99.90;;;;;;4999121;28;20485;-51